sensor_id;sensor_type;location;lat;lon;timestamp;temperature;humidity
18191;DHT22;47004;51.366;12.348;2022-08-19T00:01:40;19.40;99.90
18191;DHT22;47004;51.366;12.348;2022-08-19T00:03:43;19.40;99.90
18191;DHT22;47004;51.366;12.348;2022-08-19T00:05:45;19.40;99.90
18191;DHT22;47004;51.366;12.348;2022-08-19T00:07:47;19.50;99.90
18191;DHT22;47004;51.366;12.348;2022-08-19T00:09:49;19.40;99.90
18191;DHT22;47004;51.366;12.348;2022-08-19T00:11:51;19.50;99.90
18191;DHT22;47004;51.366;12.348;2022-08-19T00:13:56;19.50;99.90
18191;DHT22;47004;51.366;12.348;2022-08-19T00:15:58;19.40;99.90
18191;DHT22;47004;51.366;12.348;2022-08-19T00:18:01;19.50;99.90
18191;DHT22;47004;51.366;12.348;2022-08-19T00:20:05;19.40;99.90
18191;DHT22;47004;51.366;12.348;2022-08-19T00:22:07;19.50;99.90
18191;DHT22;47004;51.366;12.348;2022-08-19T00:24:12;19.50;99.90
18191;DHT22;47004;51.366;12.348;2022-08-19T00:26:14;19.40;99.90
18191;DHT22;47004;51.366;12.348;2022-08-19T00:28:16;19.50;99.90
18191;DHT22;47004;51.366;12.348;2022-08-19T00:30:18;19.50;99.90
18191;DHT22;47004;51.366;12.348;2022-08-19T00:32:20;19.40;99.90
18191;DHT22;47004;51.366;12.348;2022-08-19T00:34:22;19.40;99.90
18191;DHT22;47004;51.366;12.348;2022-08-19T00:36:26;19.40;99.90
18191;DHT22;47004;51.366;12.348;2022-08-19T00:38:29;19.40;99.90
18191;DHT22;47004;51.366;12.348;2022-08-19T00:40:31;19.40;99.90
18191;DHT22;47004;51.366;12.348;2022-08-19T00:42:33;19.40;99.90
18191;DHT22;47004;51.366;12.348;2022-08-19T00:44:35;19.30;99.90
18191;DHT22;47004;51.366;12.348;2022-08-19T00:46:39;19.40;99.90
18191;DHT22;47004;51.366;12.348;2022-08-19T00:48:41;19.30;99.90
18191;DHT22;47004;51.366;12.348;2022-08-19T00:50:44;19.30;99.90
18191;DHT22;47004;51.366;12.348;2022-08-19T00:52:50;19.30;99.90
18191;DHT22;47004;51.366;12.348;2022-08-19T00:54:53;19.30;99.90
18191;DHT22;47004;51.366;12.348;2022-08-19T00:56:55;19.30;99.90
18191;DHT22;47004;51.366;12.348;2022-08-19T00:58:58;19.30;99.90
18191;DHT22;47004;51.366;12.348;2022-08-19T01:01:00;19.30;99.90
18191;DHT22;47004;51.366;12.348;2022-08-19T01:03:02;19.30;99.90
18191;DHT22;47004;51.366;12.348;2022-08-19T01:05:08;19.30;99.90
18191;DHT22;47004;51.366;12.348;2022-08-19T01:07:10;19.30;99.90
18191;DHT22;47004;51.366;12.348;2022-08-19T01:09:14;19.30;99.90
18191;DHT22;47004;51.366;12.348;2022-08-19T01:11:16;19.40;99.90
18191;DHT22;47004;51.366;12.348;2022-08-19T01:13:21;19.30;99.90
18191;DHT22;47004;51.366;12.348;2022-08-19T01:15:27;19.30;99.90
18191;DHT22;47004;51.366;12.348;2022-08-19T01:17:30;19.40;99.90
18191;DHT22;47004;51.366;12.348;2022-08-19T01:19:36;19.40;99.90
18191;DHT22;47004;51.366;12.348;2022-08-19T01:21:41;19.30;99.90
18191;DHT22;47004;51.366;12.348;2022-08-19T01:23:46;19.30;99.90
18191;DHT22;47004;51.366;12.348;2022-08-19T01:25:50;19.30;99.90
18191;DHT22;47004;51.366;12.348;2022-08-19T01:27:53;19.30;99.90
18191;DHT22;47004;51.366;12.348;2022-08-19T01:29:56;19.20;99.90
18191;DHT22;47004;51.366;12.348;2022-08-19T01:31:58;19.30;99.90
18191;DHT22;47004;51.366;12.348;2022-08-19T01:34:02;19.30;99.90
18191;DHT22;47004;51.366;12.348;2022-08-19T01:36:06;19.30;99.90
18191;DHT22;47004;51.366;12.348;2022-08-19T01:38:19;19.30;99.90
18191;DHT22;47004;51.366;12.348;2022-08-19T01:40:25;19.30;99.90
18191;DHT22;47004;51.366;12.348;2022-08-19T01:42:27;19.30;99.90
18191;DHT22;47004;51.366;12.348;2022-08-19T01:44:33;19.30;99.90
18191;DHT22;47004;51.366;12.348;2022-08-19T01:46:37;19.30;99.90
18191;DHT22;47004;51.366;12.348;2022-08-19T01:48:41;19.40;99.90
18191;DHT22;47004;51.366;12.348;2022-08-19T01:50:43;19.30;99.90
18191;DHT22;47004;51.366;12.348;2022-08-19T01:52:45;19.30;99.90
18191;DHT22;47004;51.366;12.348;2022-08-19T01:54:47;19.40;99.90
18191;DHT22;47004;51.366;12.348;2022-08-19T01:56:50;19.30;99.90
18191;DHT22;47004;51.366;12.348;2022-08-19T01:58:55;19.30;99.90
18191;DHT22;47004;51.366;12.348;2022-08-19T02:00:58;19.30;99.90
18191;DHT22;47004;51.366;12.348;2022-08-19T02:03:00;19.30;99.90
18191;DHT22;47004;51.366;12.348;2022-08-19T02:05:03;19.40;99.90
18191;DHT22;47004;51.366;12.348;2022-08-19T02:07:05;19.40;99.90
18191;DHT22;47004;51.366;12.348;2022-08-19T02:09:08;19.30;99.90
18191;DHT22;47004;51.366;12.348;2022-08-19T02:11:18;19.40;99.90
18191;DHT22;47004;51.366;12.348;2022-08-19T02:13:24;19.30;99.90
18191;DHT22;47004;51.366;12.348;2022-08-19T02:15:27;19.40;99.90
18191;DHT22;47004;51.366;12.348;2022-08-19T02:17:29;19.30;99.90
18191;DHT22;47004;51.366;12.348;2022-08-19T02:19:32;19.30;99.90
18191;DHT22;47004;51.366;12.348;2022-08-19T02:21:34;19.30;99.90
18191;DHT22;47004;51.366;12.348;2022-08-19T02:23:36;19.20;99.90
18191;DHT22;47004;51.366;12.348;2022-08-19T02:25:38;19.20;99.90
18191;DHT22;47004;51.366;12.348;2022-08-19T02:27:42;19.20;99.90
18191;DHT22;47004;51.366;12.348;2022-08-19T02:29:46;19.30;99.90
18191;DHT22;47004;51.366;12.348;2022-08-19T02:31:48;19.20;99.90
18191;DHT22;47004;51.366;12.348;2022-08-19T02:33:50;19.30;99.90
18191;DHT22;47004;51.366;12.348;2022-08-19T02:35:52;19.20;99.90
18191;DHT22;47004;51.366;12.348;2022-08-19T02:37:54;19.30;99.90
18191;DHT22;47004;51.366;12.348;2022-08-19T02:40:14;19.20;99.90
18191;DHT22;47004;51.366;12.348;2022-08-19T02:42:18;19.30;99.90
18191;DHT22;47004;51.366;12.348;2022-08-19T02:44:20;19.30;99.90
18191;DHT22;47004;51.366;12.348;2022-08-19T02:46:25;19.30;99.90
18191;DHT22;47004;51.366;12.348;2022-08-19T02:48:27;19.30;99.90
18191;DHT22;47004;51.366;12.348;2022-08-19T02:50:29;19.30;99.90
18191;DHT22;47004;51.366;12.348;2022-08-19T02:52:32;19.30;99.90
18191;DHT22;47004;51.366;12.348;2022-08-19T02:54:34;19.30;99.90
18191;DHT22;47004;51.366;12.348;2022-08-19T02:56:38;19.40;99.90
18191;DHT22;47004;51.366;12.348;2022-08-19T02:58:40;19.30;99.90
18191;DHT22;47004;51.366;12.348;2022-08-19T03:00:44;19.30;99.90
18191;DHT22;47004;51.366;12.348;2022-08-19T03:02:48;19.40;99.90
18191;DHT22;47004;51.366;12.348;2022-08-19T03:04:50;19.40;99.90
18191;DHT22;47004;51.366;12.348;2022-08-19T03:06:52;19.40;99.90
18191;DHT22;47004;51.366;12.348;2022-08-19T03:08:54;19.40;99.90
18191;DHT22;47004;51.366;12.348;2022-08-19T03:10:56;19.40;99.90
18191;DHT22;47004;51.366;12.348;2022-08-19T03:12:58;19.40;99.90
18191;DHT22;47004;51.366;12.348;2022-08-19T03:15:01;19.40;99.90
18191;DHT22;47004;51.366;12.348;2022-08-19T03:17:03;19.50;99.90
18191;DHT22;47004;51.366;12.348;2022-08-19T03:19:07;19.40;99.90
18191;DHT22;47004;51.366;12.348;2022-08-19T03:21:09;19.40;99.90
18191;DHT22;47004;51.366;12.348;2022-08-19T03:23:16;19.40;99.90
18191;DHT22;47004;51.366;12.348;2022-08-19T03:25:18;19.40;99.90
18191;DHT22;47004;51.366;12.348;2022-08-19T03:27:20;19.50;99.90
18191;DHT22;47004;51.366;12.348;2022-08-19T03:29:23;19.50;99.90
18191;DHT22;47004;51.366;12.348;2022-08-19T03:31:26;19.50;99.90
18191;DHT22;47004;51.366;12.348;2022-08-19T03:33:29;19.50;99.90
18191;DHT22;47004;51.366;12.348;2022-08-19T03:35:33;19.50;99.90
18191;DHT22;47004;51.366;12.348;2022-08-19T03:37:37;19.50;99.90
18191;DHT22;47004;51.366;12.348;2022-08-19T03:39:40;19.50;99.90
18191;DHT22;47004;51.366;12.348;2022-08-19T03:41:44;19.50;99.90
18191;DHT22;47004;51.366;12.348;2022-08-19T03:43:47;19.40;99.90
18191;DHT22;47004;51.366;12.348;2022-08-19T03:46:00;19.40;99.90
18191;DHT22;47004;51.366;12.348;2022-08-19T03:48:04;19.50;99.90
18191;DHT22;47004;51.366;12.348;2022-08-19T03:50:06;19.40;99.90
18191;DHT22;47004;51.366;12.348;2022-08-19T03:52:10;19.50;99.90
18191;DHT22;47004;51.366;12.348;2022-08-19T03:54:14;19.50;99.90
18191;DHT22;47004;51.366;12.348;2022-08-19T03:56:16;19.40;99.90
18191;DHT22;47004;51.366;12.348;2022-08-19T03:58:18;19.40;99.90
18191;DHT22;47004;51.366;12.348;2022-08-19T04:00:20;19.50;99.90
18191;DHT22;47004;51.366;12.348;2022-08-19T04:02:22;19.50;99.90
18191;DHT22;47004;51.366;12.348;2022-08-19T04:04:25;19.50;99.90
18191;DHT22;47004;51.366;12.348;2022-08-19T04:06:28;19.50;99.90
18191;DHT22;47004;51.366;12.348;2022-08-19T04:08:32;19.50;99.90
18191;DHT22;47004;51.366;12.348;2022-08-19T04:10:35;19.40;99.90
18191;DHT22;47004;51.366;12.348;2022-08-19T04:12:37;19.40;99.90
18191;DHT22;47004;51.366;12.348;2022-08-19T04:14:40;19.40;99.90
18191;DHT22;47004;51.366;12.348;2022-08-19T04:16:42;19.40;99.90
18191;DHT22;47004;51.366;12.348;2022-08-19T04:18:45;19.40;99.90
18191;DHT22;47004;51.366;12.348;2022-08-19T04:20:47;19.30;99.90
18191;DHT22;47004;51.366;12.348;2022-08-19T04:22:49;19.30;99.90
18191;DHT22;47004;51.366;12.348;2022-08-19T04:24:52;19.30;99.90
18191;DHT22;47004;51.366;12.348;2022-08-19T04:26:54;19.30;99.90
18191;DHT22;47004;51.366;12.348;2022-08-19T04:28:56;19.30;99.90
18191;DHT22;47004;51.366;12.348;2022-08-19T04:30:58;19.40;99.90
18191;DHT22;47004;51.366;12.348;2022-08-19T04:33:00;19.30;99.90
18191;DHT22;47004;51.366;12.348;2022-08-19T04:35:02;19.30;99.90
18191;DHT22;47004;51.366;12.348;2022-08-19T04:37:06;19.30;99.90
18191;DHT22;47004;51.366;12.348;2022-08-19T04:39:14;19.30;99.90
18191;DHT22;47004;51.366;12.348;2022-08-19T04:41:17;19.30;99.90
18191;DHT22;47004;51.366;12.348;2022-08-19T04:43:38;19.40;99.90
18191;DHT22;47004;51.366;12.348;2022-08-19T04:45:40;19.40;99.90
18191;DHT22;47004;51.366;12.348;2022-08-19T04:47:43;19.30;99.90
18191;DHT22;47004;51.366;12.348;2022-08-19T04:49:45;19.30;99.90
18191;DHT22;47004;51.366;12.348;2022-08-19T04:51:47;19.30;99.90
18191;DHT22;47004;51.366;12.348;2022-08-19T04:53:50;19.30;99.90
18191;DHT22;47004;51.366;12.348;2022-08-19T04:55:52;19.30;99.90
18191;DHT22;47004;51.366;12.348;2022-08-19T04:57:56;19.40;99.90
18191;DHT22;47004;51.366;12.348;2022-08-19T04:59:58;19.30;99.90
18191;DHT22;47004;51.366;12.348;2022-08-19T05:02:00;19.30;99.90
18191;DHT22;47004;51.366;12.348;2022-08-19T05:04:04;19.30;99.90
18191;DHT22;47004;51.366;12.348;2022-08-19T05:06:08;19.20;99.90
18191;DHT22;47004;51.366;12.348;2022-08-19T05:08:11;19.40;99.90
18191;DHT22;47004;51.366;12.348;2022-08-19T05:10:13;19.30;99.90
18191;DHT22;47004;51.366;12.348;2022-08-19T05:12:15;19.30;99.90
18191;DHT22;47004;51.366;12.348;2022-08-19T05:14:18;19.30;99.90
18191;DHT22;47004;51.366;12.348;2022-08-19T05:16:23;19.30;99.90
18191;DHT22;47004;51.366;12.348;2022-08-19T05:18:25;19.40;99.90
18191;DHT22;47004;51.366;12.348;2022-08-19T05:20:45;19.40;99.90
18191;DHT22;47004;51.366;12.348;2022-08-19T05:23:04;19.30;99.90
18191;DHT22;47004;51.366;12.348;2022-08-19T05:25:09;19.30;99.90
18191;DHT22;47004;51.366;12.348;2022-08-19T05:27:12;19.30;99.90
18191;DHT22;47004;51.366;12.348;2022-08-19T05:29:16;19.30;99.90
18191;DHT22;47004;51.366;12.348;2022-08-19T05:31:19;19.40;99.90
18191;DHT22;47004;51.366;12.348;2022-08-19T05:33:22;19.30;99.90
18191;DHT22;47004;51.366;12.348;2022-08-19T05:35:24;19.40;99.90
18191;DHT22;47004;51.366;12.348;2022-08-19T05:37:26;19.40;99.90
18191;DHT22;47004;51.366;12.348;2022-08-19T05:39:30;19.50;99.90
18191;DHT22;47004;51.366;12.348;2022-08-19T05:41:32;19.30;99.90
18191;DHT22;47004;51.366;12.348;2022-08-19T05:43:34;19.30;99.90
18191;DHT22;47004;51.366;12.348;2022-08-19T05:45:41;19.30;99.90
18191;DHT22;47004;51.366;12.348;2022-08-19T05:47:44;19.30;99.90
18191;DHT22;47004;51.366;12.348;2022-08-19T05:49:47;19.30;99.90
18191;DHT22;47004;51.366;12.348;2022-08-19T05:51:50;19.30;99.90
18191;DHT22;47004;51.366;12.348;2022-08-19T05:53:52;19.40;99.90
18191;DHT22;47004;51.366;12.348;2022-08-19T05:55:54;19.30;99.90
18191;DHT22;47004;51.366;12.348;2022-08-19T05:57:56;19.30;99.90
18191;DHT22;47004;51.366;12.348;2022-08-19T05:59:58;19.40;99.90
18191;DHT22;47004;51.366;12.348;2022-08-19T06:02:03;19.40;99.90
18191;DHT22;47004;51.366;12.348;2022-08-19T06:04:07;19.30;99.90
18191;DHT22;47004;51.366;12.348;2022-08-19T06:06:11;19.30;99.90
18191;DHT22;47004;51.366;12.348;2022-08-19T06:08:13;19.30;99.90
18191;DHT22;47004;51.366;12.348;2022-08-19T06:10:15;19.40;99.90
18191;DHT22;47004;51.366;12.348;2022-08-19T06:12:17;19.40;99.90
18191;DHT22;47004;51.366;12.348;2022-08-19T06:14:22;19.30;99.90
18191;DHT22;47004;51.366;12.348;2022-08-19T06:16:24;19.30;99.90
18191;DHT22;47004;51.366;12.348;2022-08-19T06:18:27;19.30;99.90
18191;DHT22;47004;51.366;12.348;2022-08-19T06:20:31;19.40;99.90
18191;DHT22;47004;51.366;12.348;2022-08-19T06:22:37;19.30;99.90
18191;DHT22;47004;51.366;12.348;2022-08-19T06:24:39;19.40;99.90
18191;DHT22;47004;51.366;12.348;2022-08-19T06:26:44;19.50;99.90
18191;DHT22;47004;51.366;12.348;2022-08-19T06:28:47;19.50;99.90
18191;DHT22;47004;51.366;12.348;2022-08-19T06:30:49;19.50;99.90
18191;DHT22;47004;51.366;12.348;2022-08-19T06:32:51;19.50;99.90
18191;DHT22;47004;51.366;12.348;2022-08-19T06:34:53;19.60;99.90
18191;DHT22;47004;51.366;12.348;2022-08-19T06:36:58;19.60;99.90
18191;DHT22;47004;51.366;12.348;2022-08-19T06:39:03;19.60;99.90
18191;DHT22;47004;51.366;12.348;2022-08-19T06:41:06;19.60;99.90
18191;DHT22;47004;51.366;12.348;2022-08-19T06:43:08;19.60;99.90
18191;DHT22;47004;51.366;12.348;2022-08-19T06:45:10;19.60;99.90
18191;DHT22;47004;51.366;12.348;2022-08-19T06:47:15;19.60;99.90
18191;DHT22;47004;51.366;12.348;2022-08-19T06:49:18;19.60;99.90
18191;DHT22;47004;51.366;12.348;2022-08-19T06:51:21;19.60;99.90
18191;DHT22;47004;51.366;12.348;2022-08-19T06:53:25;19.60;99.90
18191;DHT22;47004;51.366;12.348;2022-08-19T06:55:29;19.50;99.90
18191;DHT22;47004;51.366;12.348;2022-08-19T06:57:31;19.50;99.90
18191;DHT22;47004;51.366;12.348;2022-08-19T06:59:33;19.50;99.90
18191;DHT22;47004;51.366;12.348;2022-08-19T07:01:36;19.50;99.90
18191;DHT22;47004;51.366;12.348;2022-08-19T07:03:38;19.50;99.90
18191;DHT22;47004;51.366;12.348;2022-08-19T07:05:41;19.50;99.90
18191;DHT22;47004;51.366;12.348;2022-08-19T07:07:43;19.50;99.90
18191;DHT22;47004;51.366;12.348;2022-08-19T07:09:47;19.50;99.90
18191;DHT22;47004;51.366;12.348;2022-08-19T07:11:50;19.40;99.90
18191;DHT22;47004;51.366;12.348;2022-08-19T07:13:53;19.40;99.90
18191;DHT22;47004;51.366;12.348;2022-08-19T07:15:55;19.40;99.90
18191;DHT22;47004;51.366;12.348;2022-08-19T07:17:57;19.50;99.90
18191;DHT22;47004;51.366;12.348;2022-08-19T07:19:59;19.40;99.90
18191;DHT22;47004;51.366;12.348;2022-08-19T07:22:03;19.40;99.90
18191;DHT22;47004;51.366;12.348;2022-08-19T07:24:05;19.50;99.90
18191;DHT22;47004;51.366;12.348;2022-08-19T07:26:10;19.40;99.90
18191;DHT22;47004;51.366;12.348;2022-08-19T07:28:13;19.30;99.90
18191;DHT22;47004;51.366;12.348;2022-08-19T07:30:14;19.30;99.90
18191;DHT22;47004;51.366;12.348;2022-08-19T07:32:16;19.30;99.90
18191;DHT22;47004;51.366;12.348;2022-08-19T07:34:19;19.30;99.90
18191;DHT22;47004;51.366;12.348;2022-08-19T07:36:23;19.20;99.90
18191;DHT22;47004;51.366;12.348;2022-08-19T07:38:25;19.30;99.90
18191;DHT22;47004;51.366;12.348;2022-08-19T07:40:27;19.30;99.90
18191;DHT22;47004;51.366;12.348;2022-08-19T07:42:30;19.30;99.90
18191;DHT22;47004;51.366;12.348;2022-08-19T07:44:32;19.30;99.90
18191;DHT22;47004;51.366;12.348;2022-08-19T07:46:36;19.20;99.90
18191;DHT22;47004;51.366;12.348;2022-08-19T07:48:40;19.20;99.90
18191;DHT22;47004;51.366;12.348;2022-08-19T07:50:42;19.20;99.90
18191;DHT22;47004;51.366;12.348;2022-08-19T07:52:44;19.30;99.90
18191;DHT22;47004;51.366;12.348;2022-08-19T07:54:46;19.30;99.90
18191;DHT22;47004;51.366;12.348;2022-08-19T07:56:50;19.30;99.90
18191;DHT22;47004;51.366;12.348;2022-08-19T07:58:54;19.30;99.90
18191;DHT22;47004;51.366;12.348;2022-08-19T08:00:56;19.40;99.90
18191;DHT22;47004;51.366;12.348;2022-08-19T08:02:58;19.30;99.90
18191;DHT22;47004;51.366;12.348;2022-08-19T08:05:00;19.30;99.90
18191;DHT22;47004;51.366;12.348;2022-08-19T08:07:16;19.30;99.90
18191;DHT22;47004;51.366;12.348;2022-08-19T08:09:39;19.40;99.90
18191;DHT22;47004;51.366;12.348;2022-08-19T08:11:45;19.40;99.90
18191;DHT22;47004;51.366;12.348;2022-08-19T08:13:49;19.40;99.90
18191;DHT22;47004;51.366;12.348;2022-08-19T08:15:53;19.40;99.90
18191;DHT22;47004;51.366;12.348;2022-08-19T08:17:55;19.40;99.90
18191;DHT22;47004;51.366;12.348;2022-08-19T08:19:58;19.40;99.90
18191;DHT22;47004;51.366;12.348;2022-08-19T08:22:01;19.40;99.90
18191;DHT22;47004;51.366;12.348;2022-08-19T08:24:03;19.50;99.90
18191;DHT22;47004;51.366;12.348;2022-08-19T08:26:04;19.50;99.90
18191;DHT22;47004;51.366;12.348;2022-08-19T08:28:06;19.50;99.90
18191;DHT22;47004;51.366;12.348;2022-08-19T08:30:12;19.50;99.90
18191;DHT22;47004;51.366;12.348;2022-08-19T08:32:16;19.50;99.90
18191;DHT22;47004;51.366;12.348;2022-08-19T08:34:18;19.60;99.90
18191;DHT22;47004;51.366;12.348;2022-08-19T08:36:19;19.50;99.90
18191;DHT22;47004;51.366;12.348;2022-08-19T08:38:23;19.50;99.90
18191;DHT22;47004;51.366;12.348;2022-08-19T08:40:29;19.50;99.90
18191;DHT22;47004;51.366;12.348;2022-08-19T08:42:36;19.40;99.90
18191;DHT22;47004;51.366;12.348;2022-08-19T08:44:49;19.40;99.90
18191;DHT22;47004;51.366;12.348;2022-08-19T08:46:56;19.40;99.90
18191;DHT22;47004;51.366;12.348;2022-08-19T08:49:06;19.40;99.90
18191;DHT22;47004;51.366;12.348;2022-08-19T08:51:11;19.40;99.90
18191;DHT22;47004;51.366;12.348;2022-08-19T08:53:17;19.50;99.90
18191;DHT22;47004;51.366;12.348;2022-08-19T08:55:22;19.50;99.90
18191;DHT22;47004;51.366;12.348;2022-08-19T08:57:27;19.40;99.90
18191;DHT22;47004;51.366;12.348;2022-08-19T08:59:34;19.40;99.90
18191;DHT22;47004;51.366;12.348;2022-08-19T09:01:36;19.40;99.90
18191;DHT22;47004;51.366;12.348;2022-08-19T09:03:40;19.40;99.90
18191;DHT22;47004;51.366;12.348;2022-08-19T09:05:51;19.30;99.90
18191;DHT22;47004;51.366;12.348;2022-08-19T09:08:00;19.40;99.90
18191;DHT22;47004;51.366;12.348;2022-08-19T09:10:11;19.40;99.90
18191;DHT22;47004;51.366;12.348;2022-08-19T09:12:25;19.30;99.90
18191;DHT22;47004;51.366;12.348;2022-08-19T09:14:36;19.30;99.90
18191;DHT22;47004;51.366;12.348;2022-08-19T09:16:41;19.30;99.90
18191;DHT22;47004;51.366;12.348;2022-08-19T09:18:45;19.30;99.90
18191;DHT22;47004;51.366;12.348;2022-08-19T09:20:48;19.30;99.90
18191;DHT22;47004;51.366;12.348;2022-08-19T09:22:50;19.40;99.90
18191;DHT22;47004;51.366;12.348;2022-08-19T09:24:53;19.30;99.90
18191;DHT22;47004;51.366;12.348;2022-08-19T09:26:55;19.40;99.90
18191;DHT22;47004;51.366;12.348;2022-08-19T09:28:57;19.40;99.90
18191;DHT22;47004;51.366;12.348;2022-08-19T09:30:59;19.40;99.90
18191;DHT22;47004;51.366;12.348;2022-08-19T09:33:01;19.40;99.90
18191;DHT22;47004;51.366;12.348;2022-08-19T09:35:04;19.50;99.90
18191;DHT22;47004;51.366;12.348;2022-08-19T09:37:08;19.50;99.90
18191;DHT22;47004;51.366;12.348;2022-08-19T09:39:10;19.50;99.90
18191;DHT22;47004;51.366;12.348;2022-08-19T09:41:14;19.40;99.90
18191;DHT22;47004;51.366;12.348;2022-08-19T09:43:16;19.50;99.90
18191;DHT22;47004;51.366;12.348;2022-08-19T09:45:20;19.50;99.90
18191;DHT22;47004;51.366;12.348;2022-08-19T09:47:22;19.50;99.90
18191;DHT22;47004;51.366;12.348;2022-08-19T09:49:24;19.40;99.90
18191;DHT22;47004;51.366;12.348;2022-08-19T09:51:27;19.40;99.90
18191;DHT22;47004;51.366;12.348;2022-08-19T09:53:31;19.40;99.90
18191;DHT22;47004;51.366;12.348;2022-08-19T09:55:33;19.50;99.90
18191;DHT22;47004;51.366;12.348;2022-08-19T09:57:35;19.60;99.90
18191;DHT22;47004;51.366;12.348;2022-08-19T09:59:39;19.50;99.90
18191;DHT22;47004;51.366;12.348;2022-08-19T10:01:41;19.60;99.90
18191;DHT22;47004;51.366;12.348;2022-08-19T10:03:43;19.60;99.90
18191;DHT22;47004;51.366;12.348;2022-08-19T10:05:48;19.60;99.90
18191;DHT22;47004;51.366;12.348;2022-08-19T10:07:49;19.70;99.90
18191;DHT22;47004;51.366;12.348;2022-08-19T10:09:52;19.70;99.90
18191;DHT22;47004;51.366;12.348;2022-08-19T10:11:54;19.70;99.90
18191;DHT22;47004;51.366;12.348;2022-08-19T10:13:57;19.70;99.90
18191;DHT22;47004;51.366;12.348;2022-08-19T10:16:04;19.70;99.90
18191;DHT22;47004;51.366;12.348;2022-08-19T10:18:07;19.80;99.90
18191;DHT22;47004;51.366;12.348;2022-08-19T10:20:10;19.80;99.90
18191;DHT22;47004;51.366;12.348;2022-08-19T10:22:12;19.80;99.90
18191;DHT22;47004;51.366;12.348;2022-08-19T10:24:15;19.80;99.90
18191;DHT22;47004;51.366;12.348;2022-08-19T10:26:20;19.90;99.90
18191;DHT22;47004;51.366;12.348;2022-08-19T10:28:22;19.90;99.90
18191;DHT22;47004;51.366;12.348;2022-08-19T10:30:24;20.00;99.90
18191;DHT22;47004;51.366;12.348;2022-08-19T10:32:26;20.10;99.90
18191;DHT22;47004;51.366;12.348;2022-08-19T10:34:30;20.20;99.90
18191;DHT22;47004;51.366;12.348;2022-08-19T10:36:34;20.30;99.90
18191;DHT22;47004;51.366;12.348;2022-08-19T10:38:37;20.30;99.90
18191;DHT22;47004;51.366;12.348;2022-08-19T10:40:38;20.40;99.90
18191;DHT22;47004;51.366;12.348;2022-08-19T10:42:42;20.40;99.90
18191;DHT22;47004;51.366;12.348;2022-08-19T10:44:44;20.40;99.90
18191;DHT22;47004;51.366;12.348;2022-08-19T10:46:47;20.30;99.90
18191;DHT22;47004;51.366;12.348;2022-08-19T10:48:49;20.30;99.90
18191;DHT22;47004;51.366;12.348;2022-08-19T10:50:51;20.30;99.90
18191;DHT22;47004;51.366;12.348;2022-08-19T10:53:10;20.30;99.90
18191;DHT22;47004;51.366;12.348;2022-08-19T10:55:12;20.30;99.90
18191;DHT22;47004;51.366;12.348;2022-08-19T10:57:32;20.30;99.90
18191;DHT22;47004;51.366;12.348;2022-08-19T10:59:36;20.20;99.90
18191;DHT22;47004;51.366;12.348;2022-08-19T11:01:38;20.30;99.90
18191;DHT22;47004;51.366;12.348;2022-08-19T11:03:40;20.20;99.90
18191;DHT22;47004;51.366;12.348;2022-08-19T11:05:42;20.20;99.90
18191;DHT22;47004;51.366;12.348;2022-08-19T11:07:44;20.20;99.90
18191;DHT22;47004;51.366;12.348;2022-08-19T11:09:46;20.20;99.90
18191;DHT22;47004;51.366;12.348;2022-08-19T11:11:48;20.10;99.90
18191;DHT22;47004;51.366;12.348;2022-08-19T11:13:51;20.10;99.90
18191;DHT22;47004;51.366;12.348;2022-08-19T11:15:59;20.10;99.90
18191;DHT22;47004;51.366;12.348;2022-08-19T11:18:01;20.20;99.90
18191;DHT22;47004;51.366;12.348;2022-08-19T11:20:04;20.20;99.90
18191;DHT22;47004;51.366;12.348;2022-08-19T11:22:08;20.30;99.90
18191;DHT22;47004;51.366;12.348;2022-08-19T11:24:12;20.40;99.90
18191;DHT22;47004;51.366;12.348;2022-08-19T11:26:14;20.40;99.90
18191;DHT22;47004;51.366;12.348;2022-08-19T11:28:16;20.40;99.90
18191;DHT22;47004;51.366;12.348;2022-08-19T11:30:18;20.50;99.90
18191;DHT22;47004;51.366;12.348;2022-08-19T11:32:21;20.50;99.90
18191;DHT22;47004;51.366;12.348;2022-08-19T11:34:25;20.50;99.90
18191;DHT22;47004;51.366;12.348;2022-08-19T11:36:29;20.50;99.90
18191;DHT22;47004;51.366;12.348;2022-08-19T11:38:31;20.50;99.90
18191;DHT22;47004;51.366;12.348;2022-08-19T11:40:34;20.50;99.90
18191;DHT22;47004;51.366;12.348;2022-08-19T11:42:36;20.60;99.90
18191;DHT22;47004;51.366;12.348;2022-08-19T11:44:56;20.60;99.90
18191;DHT22;47004;51.366;12.348;2022-08-19T11:46:58;20.60;99.90
18191;DHT22;47004;51.366;12.348;2022-08-19T11:49:05;20.60;99.90
18191;DHT22;47004;51.366;12.348;2022-08-19T11:51:10;20.70;99.90
18191;DHT22;47004;51.366;12.348;2022-08-19T11:53:12;20.70;99.90
18191;DHT22;47004;51.366;12.348;2022-08-19T11:55:14;20.70;99.90
18191;DHT22;47004;51.366;12.348;2022-08-19T11:57:17;20.80;99.90
18191;DHT22;47004;51.366;12.348;2022-08-19T11:59:20;20.80;99.90
18191;DHT22;47004;51.366;12.348;2022-08-19T12:01:23;20.80;99.90
18191;DHT22;47004;51.366;12.348;2022-08-19T12:03:25;20.90;99.90
18191;DHT22;47004;51.366;12.348;2022-08-19T12:05:29;21.00;99.90
18191;DHT22;47004;51.366;12.348;2022-08-19T12:07:31;21.00;99.90
18191;DHT22;47004;51.366;12.348;2022-08-19T12:09:33;21.00;99.90
18191;DHT22;47004;51.366;12.348;2022-08-19T12:11:35;21.10;99.90
18191;DHT22;47004;51.366;12.348;2022-08-19T12:13:38;21.30;99.90
18191;DHT22;47004;51.366;12.348;2022-08-19T12:15:41;21.40;99.90
18191;DHT22;47004;51.366;12.348;2022-08-19T12:17:42;21.60;99.90
18191;DHT22;47004;51.366;12.348;2022-08-19T12:19:44;21.60;99.90
18191;DHT22;47004;51.366;12.348;2022-08-19T12:21:48;21.80;99.90
18191;DHT22;47004;51.366;12.348;2022-08-19T12:23:51;21.90;99.90
18191;DHT22;47004;51.366;12.348;2022-08-19T12:25:53;22.10;99.90
18191;DHT22;47004;51.366;12.348;2022-08-19T12:27:59;22.20;99.90
18191;DHT22;47004;51.366;12.348;2022-08-19T12:30:01;22.40;99.90
18191;DHT22;47004;51.366;12.348;2022-08-19T12:32:03;22.50;99.90
18191;DHT22;47004;51.366;12.348;2022-08-19T12:34:05;22.70;99.90
18191;DHT22;47004;51.366;12.348;2022-08-19T12:36:10;22.70;99.90
18191;DHT22;47004;51.366;12.348;2022-08-19T12:38:14;22.90;99.90
18191;DHT22;47004;51.366;12.348;2022-08-19T12:40:16;23.00;99.90
18191;DHT22;47004;51.366;12.348;2022-08-19T12:42:19;23.00;99.90
18191;DHT22;47004;51.366;12.348;2022-08-19T12:44:23;23.10;99.90
18191;DHT22;47004;51.366;12.348;2022-08-19T12:46:25;23.20;99.90
18191;DHT22;47004;51.366;12.348;2022-08-19T12:48:27;23.20;99.90